createdAt,value
2023-04-21T00:01:34.474Z,14.10
2023-04-21T00:04:02.081Z,14.07
2023-04-21T00:06:31.518Z,13.47
2023-04-21T00:08:58.406Z,14.27
2023-04-21T00:11:25.351Z,13.87
2023-04-21T00:13:52.288Z,13.67
2023-04-21T00:16:19.201Z,13.73
2023-04-21T00:18:46.087Z,13.93
2023-04-21T00:21:13.019Z,13.27
2023-04-21T00:23:39.896Z,13.23
2023-04-21T00:26:06.758Z,13.50
2023-04-21T00:28:33.664Z,14.20
2023-04-21T00:31:00.566Z,14.00
2023-04-21T00:33:27.545Z,14.07
2023-04-21T00:35:54.612Z,14.17
2023-04-21T00:38:21.570Z,14.60
2023-04-21T00:40:48.438Z,13.60
2023-04-21T00:43:15.395Z,15.33
2023-04-21T00:45:44.998Z,15.27
2023-04-21T00:48:11.851Z,14.27
2023-04-21T00:50:38.715Z,14.40
2023-04-21T00:53:05.597Z,14.00
2023-04-21T00:55:32.515Z,14.83
2023-04-21T00:57:59.383Z,14.93
2023-04-21T01:00:27.373Z,13.70
2023-04-21T01:02:54.523Z,15.40
2023-04-21T01:05:21.634Z,15.27
2023-04-21T01:07:48.563Z,14.40
2023-04-21T01:10:15.481Z,15.37
2023-04-21T01:12:44.304Z,14.80
2023-04-21T01:15:16.566Z,15.60
2023-04-21T01:17:43.564Z,16.20
2023-04-21T01:20:12.574Z,16.80
2023-04-21T01:22:40.061Z,15.07
2023-04-21T01:25:07.589Z,15.63
2023-04-21T01:27:34.675Z,15.90
2023-04-21T01:30:01.566Z,17.00
2023-04-21T01:32:29.336Z,15.80
2023-04-21T01:34:57.002Z,16.17
2023-04-21T01:37:26.029Z,17.43
2023-04-21T01:39:54.749Z,17.17
2023-04-21T01:42:23.016Z,16.63
2023-04-21T01:44:50.011Z,17.20
2023-04-21T01:47:17.150Z,17.77
2023-04-21T01:49:44.984Z,18.50
2023-04-21T01:52:11.862Z,19.00
2023-04-21T01:54:38.869Z,19.40
2023-04-21T01:57:06.734Z,18.93
2023-04-21T01:59:33.613Z,19.17
2023-04-21T02:02:00.542Z,19.70
2023-04-21T02:04:27.663Z,20.50
2023-04-21T02:06:54.653Z,20.90
2023-04-21T02:09:21.767Z,21.33
2023-04-21T02:11:48.865Z,21.57
2023-04-21T02:14:15.875Z,22.73
2023-04-21T02:16:43.136Z,23.47
2023-04-21T02:19:10.148Z,22.70
2023-04-21T02:21:37.054Z,23.73
2023-04-21T02:24:04.173Z,24.10
2023-04-21T02:26:31.035Z,25.60
2023-04-21T02:28:58.063Z,25.17
2023-04-21T02:31:25.052Z,25.50
2023-04-21T02:33:51.999Z,27.37
2023-04-21T02:36:18.924Z,27.00
2023-04-21T02:38:45.803Z,27.57
2023-04-21T02:41:12.703Z,29.23
2023-04-21T02:43:39.544Z,28.60
2023-04-21T02:46:07.634Z,30.10
2023-04-21T02:48:35.768Z,30.60
2023-04-21T02:51:02.773Z,32.50
2023-04-21T02:53:29.729Z,31.03
2023-04-21T02:55:56.636Z,34.83
2023-04-21T02:58:23.812Z,34.87
2023-04-21T03:00:51.758Z,36.50
2023-04-21T03:03:18.867Z,35.30
2023-04-21T03:05:46.046Z,37.03
2023-04-21T03:08:13.027Z,37.57
2023-04-21T03:10:40.018Z,37.33
2023-04-21T03:13:06.967Z,37.30
2023-04-21T03:15:33.832Z,36.70
2023-04-21T03:18:01.244Z,38.63
2023-04-21T03:20:28.261Z,37.63
2023-04-21T03:22:55.234Z,38.63
2023-04-21T03:25:22.171Z,38.10
2023-04-21T03:27:49.164Z,39.40
2023-04-21T03:30:16.047Z,38.47
2023-04-21T03:32:43.007Z,38.63
2023-04-21T03:35:09.982Z,40.00
2023-04-21T03:37:36.850Z,38.40
2023-04-21T03:40:06.174Z,38.93
2023-04-21T03:42:33.087Z,37.93
2023-04-21T03:45:06.837Z,38.10
2023-04-21T03:47:33.718Z,38.87
2023-04-21T03:50:00.700Z,40.47
2023-04-21T03:52:27.559Z,39.33
2023-04-21T03:54:54.421Z,40.20
2023-04-21T03:57:21.323Z,38.80
2023-04-21T03:59:48.200Z,39.93
2023-04-21T04:02:15.130Z,39.40
2023-04-21T04:04:42.237Z,40.37
2023-04-21T04:07:10.113Z,40.50
2023-04-21T04:09:36.958Z,38.77
2023-04-21T04:12:04.107Z,37.63
2023-04-21T04:14:31.153Z,37.83
2023-04-21T04:16:59.350Z,38.20
2023-04-21T04:19:31.734Z,38.37
2023-04-21T04:22:02.169Z,37.80
2023-04-21T04:24:29.773Z,36.17
2023-04-21T04:26:58.198Z,33.87
2023-04-21T04:29:25.114Z,32.47
2023-04-21T04:31:52.079Z,31.93
2023-04-21T04:34:19.367Z,31.13
2023-04-21T04:36:48.180Z,28.00
2023-04-21T04:39:16.505Z,29.03
2023-04-21T04:41:43.450Z,27.27
2023-04-21T04:44:11.341Z,26.33
2023-04-21T04:46:39.659Z,26.67
2023-04-21T04:49:07.618Z,26.23
2023-04-21T04:51:34.523Z,27.50
2023-04-21T04:54:01.433Z,26.40
2023-04-21T04:56:30.493Z,27.20
2023-04-21T04:58:57.343Z,28.70
2023-04-21T05:01:30.338Z,27.37
2023-04-21T05:03:57.498Z,27.00
2023-04-21T05:06:24.462Z,28.57
2023-04-21T05:08:51.382Z,26.90
2023-04-21T05:11:18.258Z,28.00
2023-04-21T05:13:45.120Z,27.00
2023-04-21T05:16:12.212Z,29.43
2023-04-21T05:18:39.096Z,27.00
2023-04-21T05:21:06.107Z,27.50
2023-04-21T05:23:33.035Z,27.03
2023-04-21T05:26:01.986Z,27.60
2023-04-21T05:28:31.997Z,28.97
2023-04-21T05:30:58.934Z,27.80
2023-04-21T05:33:26.985Z,29.10
2023-04-21T05:35:53.986Z,27.00
2023-04-21T05:38:20.922Z,27.03
2023-04-21T05:40:56.312Z,26.37
2023-04-21T05:43:23.279Z,25.47
2023-04-21T05:45:50.214Z,26.03
2023-04-21T05:48:17.157Z,27.63
2023-04-21T05:50:44.165Z,26.40
2023-04-21T05:53:11.039Z,25.67
2023-04-21T05:55:37.976Z,26.67
2023-04-21T05:58:05.479Z,26.30
2023-04-21T06:00:32.422Z,26.90
2023-04-21T06:02:59.470Z,26.77
2023-04-21T06:05:26.629Z,28.03
2023-04-21T06:07:53.611Z,28.73
2023-04-21T06:10:21.235Z,27.73
2023-04-21T06:12:48.136Z,27.83
2023-04-21T06:15:15.143Z,29.07
2023-04-21T06:17:42.053Z,28.87
2023-04-21T06:20:09.435Z,29.93
2023-04-21T06:22:36.331Z,30.80
2023-04-21T06:25:05.610Z,30.50
2023-04-21T06:27:32.624Z,32.20
2023-04-21T06:29:59.528Z,32.47
2023-04-21T06:32:27.607Z,31.83
2023-04-21T06:34:54.467Z,33.57
2023-04-21T06:37:21.307Z,34.20
2023-04-21T06:39:48.277Z,32.73
2023-04-21T06:42:15.139Z,36.27
2023-04-21T06:44:41.982Z,36.37
2023-04-21T06:47:09.054Z,35.57
2023-04-21T06:49:37.418Z,35.47
2023-04-21T06:52:04.852Z,35.10
2023-04-21T06:54:31.791Z,35.10
2023-04-21T06:56:58.722Z,34.97
2023-04-21T06:59:25.659Z,35.13
2023-04-21T07:01:52.699Z,34.97
2023-04-21T07:04:19.865Z,34.80
2023-04-21T07:06:47.178Z,33.67
2023-04-21T07:09:15.159Z,33.53
2023-04-21T07:11:42.074Z,32.60
2023-04-21T07:14:08.995Z,32.73
2023-04-21T07:16:35.947Z,34.40
2023-04-21T07:19:02.863Z,33.73
2023-04-21T07:21:36.161Z,34.83
2023-04-21T07:24:03.869Z,33.50
2023-04-21T07:26:31.015Z,33.70
2023-04-21T07:28:58.606Z,33.80
2023-04-21T07:31:25.880Z,33.13
2023-04-21T07:33:54.027Z,33.47
2023-04-21T07:36:21.002Z,32.03
2023-04-21T07:38:47.909Z,32.77
2023-04-21T07:41:14.798Z,31.07
2023-04-21T07:43:41.667Z,32.83
2023-04-21T07:46:08.602Z,31.50
2023-04-21T07:48:35.620Z,31.87
2023-04-21T07:51:03.466Z,33.07
2023-04-21T07:53:31.167Z,29.23
2023-04-21T07:55:58.386Z,29.43
2023-04-21T07:58:25.326Z,29.33
2023-04-21T08:00:52.162Z,29.20
2023-04-21T08:03:20.869Z,30.33
2023-04-21T08:05:49.409Z,30.47
2023-04-21T08:08:20.306Z,28.87
2023-04-21T08:10:47.270Z,31.27
2023-04-21T08:13:14.312Z,30.43
2023-04-21T08:15:41.221Z,32.20
2023-04-21T08:18:08.833Z,33.10
2023-04-21T08:20:35.983Z,31.43
2023-04-21T08:23:03.139Z,30.37
2023-04-21T08:25:31.058Z,29.60
2023-04-21T08:27:57.981Z,28.57
2023-04-21T08:30:27.380Z,26.87
2023-04-21T08:32:54.398Z,26.37
2023-04-21T08:35:21.292Z,24.53
2023-04-21T08:37:49.092Z,24.40
2023-04-21T08:40:17.099Z,23.93
2023-04-21T08:42:45.383Z,24.27
2023-04-21T08:45:12.371Z,23.87
2023-04-21T08:47:40.337Z,22.67
2023-04-21T08:50:08.707Z,23.93
2023-04-21T08:52:35.585Z,23.30
2023-04-21T08:55:02.522Z,24.97
2023-04-21T08:57:29.412Z,25.70
2023-04-21T08:59:56.342Z,24.37
2023-04-21T09:02:23.481Z,25.87
2023-04-21T09:04:55.839Z,29.57
2023-04-21T09:07:34.077Z,27.63
2023-04-21T09:10:01.608Z,28.63
2023-04-21T09:12:29.516Z,28.50
2023-04-21T09:14:58.192Z,25.97
2023-04-21T09:17:32.632Z,24.93
2023-04-21T09:20:29.017Z,25.93
2023-04-21T09:22:55.939Z,30.27
2023-04-21T09:25:22.954Z,33.40
2023-04-21T09:27:49.965Z,33.07
2023-04-21T09:30:20.022Z,32.40
2023-04-21T09:32:47.188Z,29.35
2023-04-21T09:35:14.148Z,32.00
2023-04-21T09:37:43.519Z,35.07
2023-04-21T09:40:13.853Z,34.33
2023-04-21T09:42:42.019Z,32.57
2023-04-21T09:47:42.842Z,33.07
2023-04-21T09:50:12.801Z,35.47
2023-04-21T09:52:40.072Z,35.80
2023-04-21T09:55:11.232Z,37.63
2023-04-21T09:57:39.377Z,37.50
2023-04-21T10:00:12.057Z,40.17
2023-04-21T10:02:48.592Z,39.63
2023-04-21T10:05:15.607Z,42.53
2023-04-21T10:07:42.534Z,40.10
2023-04-21T10:10:20.936Z,44.87
2023-04-21T10:12:47.796Z,40.30
2023-04-21T10:15:30.807Z,39.40
2023-04-21T10:18:17.592Z,37.17
2023-04-21T10:20:56.494Z,35.67
2023-04-21T10:23:32.602Z,29.40
2023-04-21T10:26:07.027Z,27.58
2023-04-21T10:28:44.103Z,26.58
2023-04-21T10:31:39.293Z,28.03
2023-04-21T10:34:09.419Z,31.30
2023-04-21T10:36:45.924Z,27.88
2023-04-21T10:39:36.481Z,22.92
2023-04-21T10:42:40.291Z,23.15
2023-04-21T10:45:08.688Z,23.90
2023-04-21T10:47:44.353Z,26.27
2023-04-21T10:50:30.673Z,24.08
2023-04-21T10:53:23.764Z,22.23
2023-04-21T10:55:50.696Z,22.20
2023-04-21T10:58:17.639Z,16.95
2023-04-21T11:00:44.634Z,16.77
2023-04-21T11:03:11.976Z,18.48
2023-04-21T11:05:40.573Z,15.68
2023-04-21T11:08:16.245Z,16.33
2023-04-21T11:10:43.065Z,15.93
2023-04-21T11:13:10.183Z,16.25
2023-04-21T11:15:37.047Z,15.88
2023-04-21T11:18:04.042Z,15.57
2023-04-21T11:20:31.053Z,20.70
2023-04-21T11:22:57.974Z,23.23
2023-04-21T11:25:24.927Z,19.92
2023-04-21T11:28:00.215Z,18.08
2023-04-21T11:30:34.262Z,16.75
2023-04-21T11:33:01.480Z,15.98
2023-04-21T11:35:28.413Z,15.43
2023-04-21T11:37:55.732Z,14.27
2023-04-21T11:40:22.665Z,13.70
2023-04-21T11:42:49.538Z,14.63
2023-04-21T11:45:22.145Z,16.10
2023-04-21T11:47:49.680Z,19.65
2023-04-21T11:50:31.245Z,17.73
2023-04-21T11:52:58.146Z,21.35
2023-04-21T11:55:25.134Z,19.83
2023-04-21T11:57:53.151Z,18.13
2023-04-21T12:00:20.294Z,17.75
2023-04-21T12:02:54.994Z,21.88
2023-04-21T12:05:22.613Z,20.85
2023-04-21T12:07:49.930Z,19.80
2023-04-21T12:10:20.995Z,20.60
2023-04-21T12:12:48.161Z,21.20
2023-04-21T12:15:20.188Z,22.00
2023-04-21T12:17:48.585Z,22.65
2023-04-21T12:20:19.649Z,23.38
2023-04-21T12:22:46.787Z,22.80
2023-04-21T12:25:14.094Z,24.10
2023-04-21T12:27:53.508Z,24.10
2023-04-21T12:30:21.038Z,24.17
2023-04-21T12:32:48.304Z,23.83
2023-04-21T12:35:15.762Z,24.70
2023-04-21T12:37:42.895Z,24.63
2023-04-21T12:40:10.114Z,23.58
2023-04-21T12:42:38.416Z,23.38
2023-04-21T12:45:06.585Z,22.83
2023-04-21T12:47:33.781Z,22.75
2023-04-21T12:50:00.693Z,23.33
2023-04-21T12:52:27.596Z,24.05
2023-04-21T12:54:54.535Z,22.92
2023-04-21T12:57:21.605Z,22.35
2023-04-21T12:59:48.724Z,22.48
2023-04-21T13:02:15.863Z,22.42
2023-04-21T13:04:42.936Z,22.65
2023-04-21T13:07:10.027Z,21.98
2023-04-21T13:09:36.913Z,21.17
2023-04-21T13:12:03.912Z,21.83
2023-04-21T13:14:30.779Z,20.63
2023-04-21T13:16:57.797Z,23.33
2023-04-21T13:19:25.083Z,20.67
2023-04-21T13:21:54.207Z,21.33
2023-04-21T13:24:21.769Z,20.17
2023-04-21T13:26:48.733Z,20.65
2023-04-21T13:29:16.146Z,21.00
2023-04-21T13:31:43.126Z,25.80
2023-04-21T13:34:10.011Z,23.00
2023-04-21T13:36:37.027Z,23.13
2023-04-21T13:39:05.747Z,26.48
2023-04-21T13:41:32.770Z,26.63
2023-04-21T13:43:59.871Z,24.88
2023-04-21T13:46:26.893Z,26.90
2023-04-21T13:48:54.488Z,27.17
2023-04-21T13:51:21.509Z,25.95
2023-04-21T13:53:49.003Z,26.23
2023-04-21T13:56:16.439Z,26.10
2023-04-21T13:58:44.430Z,25.95
2023-04-21T14:01:12.948Z,26.05
2023-04-21T14:03:40.066Z,26.45
2023-04-21T14:06:07.169Z,24.63
2023-04-21T14:08:34.047Z,26.02
2023-04-21T14:11:01.087Z,25.50
2023-04-21T14:13:36.062Z,25.92
2023-04-21T14:16:04.771Z,25.70
2023-04-21T14:18:32.943Z,26.08
2023-04-21T14:20:59.885Z,25.85
2023-04-21T14:23:26.818Z,26.77
2023-04-21T14:25:55.082Z,24.67
2023-04-21T14:28:22.186Z,25.35
2023-04-21T14:30:49.087Z,27.30
2023-04-21T14:33:16.368Z,25.92
2023-04-21T14:35:43.290Z,24.67
2023-04-21T14:38:10.279Z,25.08
2023-04-21T14:40:37.118Z,24.27
2023-04-21T14:43:04.080Z,27.10
2023-04-21T14:45:31.075Z,29.10
2023-04-21T14:47:58.121Z,28.13
2023-04-21T14:50:25.102Z,28.90
2023-04-21T14:52:52.112Z,31.35
2023-04-21T14:55:19.161Z,32.28
2023-04-21T14:57:47.148Z,33.92
2023-04-21T15:00:14.546Z,33.15
2023-04-21T15:02:41.676Z,33.42
2023-04-21T15:05:09.110Z,33.97
2023-04-21T15:07:36.303Z,33.55
2023-04-21T15:10:03.334Z,33.92
2023-04-21T15:12:30.352Z,34.58
2023-04-21T15:14:57.207Z,34.58
2023-04-21T15:17:24.320Z,34.53
2023-04-21T15:19:51.363Z,35.97
2023-04-21T15:22:18.336Z,34.33
2023-04-21T15:24:45.963Z,33.97
2023-04-21T15:27:12.878Z,34.15
2023-04-21T15:29:39.882Z,32.42
2023-04-21T15:32:06.759Z,33.58
2023-04-21T15:34:33.589Z,33.20
2023-04-21T15:37:00.537Z,31.08
2023-04-21T15:39:27.472Z,31.88
2023-04-21T15:41:55.167Z,30.88
2023-04-21T15:44:22.123Z,31.98
2023-04-21T15:46:49.031Z,31.13
2023-04-21T15:49:16.101Z,30.77
2023-04-21T15:51:43.167Z,30.85
2023-04-21T15:54:10.522Z,32.10
2023-04-21T15:56:37.481Z,33.35
2023-04-21T15:59:04.815Z,32.77
2023-04-21T16:01:31.931Z,32.33
2023-04-21T16:04:00.084Z,33.35
2023-04-21T16:06:30.752Z,33.00
2023-04-21T16:08:58.263Z,34.05
2023-04-21T16:11:26.329Z,32.58
2023-04-21T16:13:53.198Z,32.42
2023-04-21T16:16:20.284Z,32.25
2023-04-21T16:18:48.204Z,30.42
2023-04-21T16:21:16.163Z,31.70
2023-04-21T16:23:43.029Z,30.88
2023-04-21T16:26:09.926Z,28.98
2023-04-21T16:28:37.000Z,29.98
2023-04-21T16:31:04.160Z,27.90
2023-04-21T16:33:31.331Z,29.52
2023-04-21T16:35:58.347Z,28.23
2023-04-21T16:38:25.569Z,27.77
2023-04-21T16:40:52.580Z,27.42
2023-04-21T16:43:19.567Z,26.95
2023-04-21T16:45:46.435Z,26.13
2023-04-21T16:48:13.781Z,28.13
2023-04-21T16:50:42.044Z,28.23
2023-04-21T16:53:09.048Z,29.45
2023-04-21T16:55:35.957Z,28.50
2023-04-21T16:58:02.865Z,28.95
2023-04-21T17:00:30.487Z,30.95
2023-04-21T17:02:57.797Z,30.50
2023-04-21T17:05:24.984Z,30.00
2023-04-21T17:07:51.956Z,29.45
2023-04-21T17:10:18.825Z,31.40
2023-04-21T17:12:46.394Z,29.30
2023-04-21T17:15:13.431Z,32.47
2023-04-21T17:17:42.569Z,31.37
2023-04-21T17:20:11.319Z,18.73
2023-04-21T17:22:39.149Z,13.23
2023-04-21T17:25:06.410Z,13.40
2023-04-21T17:27:34.924Z,13.23
2023-04-21T17:30:02.070Z,15.07
2023-04-21T17:32:31.272Z,17.07
2023-04-21T17:35:01.042Z,15.17
2023-04-21T17:37:28.984Z,12.57
2023-04-21T17:39:56.148Z,10.73
2023-04-21T17:42:23.266Z,9.30
2023-04-21T17:44:50.153Z,8.90
2023-04-21T17:47:17.047Z,7.47
2023-04-21T17:49:44.159Z,10.10
2023-04-21T17:52:11.260Z,7.13
2023-04-21T17:54:38.566Z,7.90
2023-04-21T17:57:06.811Z,8.00
2023-04-21T17:59:33.884Z,8.33
2023-04-21T18:02:01.903Z,9.27
2023-04-21T18:04:30.777Z,9.43
2023-04-21T18:06:59.069Z,9.23
2023-04-21T18:09:26.067Z,8.40
2023-04-21T18:11:53.051Z,8.00
2023-04-21T18:14:20.483Z,8.73
2023-04-21T18:16:47.394Z,8.77
2023-04-21T18:19:14.501Z,9.30
2023-04-21T18:21:41.521Z,7.83
2023-04-21T18:24:08.416Z,6.80
2023-04-21T18:26:35.304Z,7.53
2023-04-21T18:29:03.085Z,7.10
2023-04-21T18:31:30.117Z,8.00
2023-04-21T18:33:57.049Z,7.70
2023-04-21T18:36:24.087Z,8.63
2023-04-21T18:38:50.987Z,9.07
2023-04-21T18:41:17.924Z,8.93
2023-04-21T18:43:44.813Z,9.13
2023-04-21T18:46:11.711Z,9.47
2023-04-21T18:48:38.646Z,8.70
2023-04-21T18:51:05.658Z,10.27
2023-04-21T18:53:32.563Z,11.33
2023-04-21T18:55:59.553Z,12.90
2023-04-21T18:58:26.496Z,12.63
2023-04-21T19:00:54.826Z,12.50
2023-04-21T19:03:22.306Z,14.57
2023-04-21T19:05:49.329Z,16.00
2023-04-21T19:08:18.197Z,16.47
2023-04-21T19:10:48.465Z,17.63
2023-04-21T19:13:17.079Z,16.37
2023-04-21T19:15:43.968Z,18.87
2023-04-21T19:18:11.139Z,19.13
2023-04-21T19:20:38.074Z,19.80
2023-04-21T19:23:05.705Z,18.67
2023-04-21T19:25:33.377Z,20.67
2023-04-21T19:28:01.527Z,19.17
2023-04-21T19:30:28.438Z,19.97
2023-04-21T19:32:55.493Z,18.67
2023-04-21T19:35:22.627Z,19.67
2023-04-21T19:37:49.623Z,18.23
2023-04-21T19:42:59.356Z,19.97
2023-04-21T19:45:26.251Z,21.00
2023-04-21T19:47:53.272Z,19.10
2023-04-21T19:50:20.418Z,18.77
2023-04-21T19:52:47.277Z,19.63
2023-04-21T19:55:14.841Z,19.37
2023-04-21T19:57:41.777Z,20.40
2023-04-21T20:00:09.416Z,19.00
2023-04-21T20:02:36.918Z,19.60
2023-04-21T20:05:04.232Z,20.43
2023-04-21T20:07:31.232Z,19.27
2023-04-21T20:09:58.103Z,19.80
2023-04-21T20:12:25.034Z,20.57
2023-04-21T20:14:53.707Z,20.10
2023-04-21T20:17:21.044Z,19.73
2023-04-21T20:19:49.062Z,20.73
2023-04-21T20:22:16.126Z,21.37
2023-04-21T20:24:43.174Z,21.30
2023-04-21T20:27:10.105Z,21.07
2023-04-21T20:29:37.121Z,21.83
2023-04-21T20:32:04.417Z,22.50
2023-04-21T20:34:32.299Z,22.50
2023-04-21T20:36:59.495Z,22.60
2023-04-21T20:39:26.409Z,23.57
2023-04-21T20:42:01.253Z,24.47
2023-04-21T20:44:37.322Z,24.30
2023-04-21T20:47:04.540Z,24.90
2023-04-21T20:49:31.601Z,24.50
2023-04-21T20:51:59.114Z,25.37
2023-04-21T20:54:26.052Z,23.23
2023-04-21T20:56:53.006Z,22.53
2023-04-21T20:59:20.167Z,24.87
2023-04-21T21:01:47.029Z,23.73
2023-04-21T21:04:14.342Z,21.00
2023-04-21T21:06:41.315Z,22.13
2023-04-21T21:09:10.092Z,20.90
2023-04-21T21:11:36.973Z,18.30
2023-04-21T21:14:03.882Z,18.73
2023-04-21T21:16:30.812Z,19.07
2023-04-21T21:18:57.718Z,17.70
2023-04-21T21:21:24.651Z,20.33
2023-04-21T21:23:51.679Z,20.23
2023-04-21T21:26:18.528Z,19.47
2023-04-21T21:28:45.474Z,19.97
2023-04-21T21:31:12.493Z,19.97
2023-04-21T21:33:39.346Z,21.93
2023-04-21T21:36:06.503Z,18.93
2023-04-21T21:38:33.437Z,19.67
2023-04-21T21:41:00.945Z,20.77
2023-04-21T21:43:28.831Z,23.07
2023-04-21T21:45:55.894Z,24.70
2023-04-21T21:48:23.025Z,23.93
2023-04-21T21:50:49.963Z,25.67
2023-04-21T21:53:16.948Z,27.80
2023-04-21T21:55:43.927Z,28.37
2023-04-21T21:58:10.891Z,30.60
2023-04-21T22:00:39.305Z,29.70
2023-04-21T22:03:06.662Z,30.10
2023-04-21T22:05:33.717Z,30.40
2023-04-21T22:08:00.976Z,31.67
2023-04-21T22:10:27.942Z,31.03
2023-04-21T22:12:54.782Z,33.87
2023-04-21T22:15:21.631Z,32.33
2023-04-21T22:17:48.774Z,29.70
2023-04-21T22:20:15.685Z,31.47
2023-04-21T22:22:42.626Z,32.03
2023-04-21T22:25:11.057Z,31.20
2023-04-21T22:27:38.170Z,31.87
2023-04-21T22:30:05.579Z,32.30
2023-04-21T22:32:32.683Z,30.07
2023-04-21T22:35:00.057Z,29.13
2023-04-21T22:37:27.325Z,28.27
2023-04-21T22:39:57.698Z,26.33
2023-04-21T22:42:24.647Z,27.13
2023-04-21T22:44:51.533Z,27.57
2023-04-21T22:47:18.444Z,26.37
2023-04-21T22:49:45.381Z,28.23
2023-04-21T22:52:12.250Z,27.30
2023-04-21T22:54:39.131Z,28.80
2023-04-21T22:57:06.205Z,28.13
2023-04-21T22:59:33.160Z,26.33
2023-04-21T23:02:00.086Z,26.37
2023-04-21T23:04:26.953Z,27.27
2023-04-21T23:06:53.833Z,27.37
2023-04-21T23:09:20.721Z,28.07
2023-04-21T23:11:47.561Z,26.77
2023-04-21T23:14:14.474Z,26.77
2023-04-21T23:16:42.549Z,27.60
2023-04-21T23:19:09.431Z,26.30
2023-04-21T23:21:37.301Z,28.33
2023-04-21T23:24:04.319Z,26.00
2023-04-21T23:26:31.236Z,27.10
2023-04-21T23:28:58.189Z,27.93
2023-04-21T23:31:26.080Z,29.50
2023-04-21T23:33:52.981Z,27.63
2023-04-21T23:36:19.875Z,28.37
2023-04-21T23:38:46.703Z,26.63
2023-04-21T23:41:13.606Z,29.57
2023-04-21T23:43:40.473Z,28.33
2023-04-21T23:46:07.369Z,26.33
2023-04-21T23:48:34.895Z,26.47
2023-04-21T23:51:01.974Z,25.47
2023-04-21T23:53:28.814Z,25.67
2023-04-21T23:55:55.709Z,26.73
2023-04-21T23:58:22.609Z,25.77
